createdAt,value
2019-06-27T06:01:30.969Z,79.40
2019-06-27T06:04:05.238Z,79.50
2019-06-27T06:06:38.698Z,80.00
2019-06-27T06:09:12.549Z,80.90
2019-06-27T06:11:46.267Z,80.30
2019-06-27T06:14:20.834Z,80.70
2019-06-27T06:16:55.477Z,80.10
2019-06-27T06:19:30.362Z,80.40
2019-06-27T06:22:04.024Z,80.80
2019-06-27T06:24:37.553Z,80.20
2019-06-27T06:27:11.416Z,79.90
2019-06-27T06:29:44.935Z,79.80
2019-06-27T06:32:19.446Z,78.40
2019-06-27T06:34:52.880Z,77.20
2019-06-27T06:37:27.340Z,77.10
2019-06-27T06:40:01.459Z,78.20
2019-06-27T06:42:36.578Z,78.80
2019-06-27T06:45:13.024Z,77.40
2019-06-27T06:47:47.267Z,76.40
2019-06-27T06:50:24.186Z,75.20
2019-06-27T06:52:58.134Z,75.60
2019-06-27T06:55:31.663Z,74.90
2019-06-27T06:58:06.885Z,74.90
2019-06-27T07:01:04.971Z,74.30
2019-06-27T07:03:40.492Z,73.70
2019-06-27T07:06:18.457Z,73.20
2019-06-27T07:08:52.563Z,72.80
2019-06-27T07:11:33.238Z,73.00
2019-06-27T07:14:09.947Z,72.40
2019-06-27T07:16:45.134Z,70.90
2019-06-27T07:19:18.593Z,72.10
2019-06-27T07:21:51.752Z,71.90
2019-06-27T07:24:25.791Z,72.20
2019-06-27T07:27:03.390Z,71.30
2019-06-27T07:29:37.780Z,72.50
2019-06-27T07:32:14.847Z,73.10
2019-06-27T07:34:48.432Z,73.10
2019-06-27T07:37:22.991Z,73.40
2019-06-27T07:39:57.397Z,72.90
2019-06-27T07:42:31.912Z,72.70
2019-06-27T07:45:09.423Z,73.10
2019-06-27T07:47:45.315Z,73.50
2019-06-27T07:50:19.728Z,74.00
2019-06-27T07:52:54.091Z,72.90
2019-06-27T07:55:29.038Z,73.10
2019-06-27T07:58:03.623Z,74.20
2019-06-27T08:00:40.170Z,73.30
2019-06-27T08:03:16.257Z,71.50
2019-06-27T08:05:55.617Z,70.80
2019-06-27T08:08:33.619Z,70.70
2019-06-27T08:11:09.190Z,70.70
2019-06-27T08:13:46.738Z,70.10
2019-06-27T08:16:25.455Z,69.70
2019-06-27T08:19:02.863Z,69.50
2019-06-27T08:21:38.770Z,68.30
2019-06-27T08:24:16.706Z,65.00
2019-06-27T08:26:57.577Z,66.50
2019-06-27T08:29:39.366Z,67.90
2019-06-27T08:32:16.074Z,67.10
2019-06-27T08:34:57.440Z,66.30
2019-06-27T08:37:35.339Z,66.60
2019-06-27T08:40:13.611Z,67.20
2019-06-27T08:42:49.007Z,67.00
2019-06-27T08:45:25.015Z,66.50
2019-06-27T08:47:59.282Z,67.20
2019-06-27T08:50:33.751Z,66.90
2019-06-27T08:53:08.300Z,66.00
2019-06-27T08:55:41.866Z,64.90
2019-06-27T08:58:18.681Z,64.70
2019-06-27T09:00:55.270Z,64.40
2019-06-27T09:03:30.057Z,64.90
2019-06-27T09:06:06.286Z,64.10
2019-06-27T09:08:41.435Z,65.80
2019-06-27T09:11:15.200Z,63.30
2019-06-27T09:13:50.182Z,63.40
2019-06-27T09:16:24.468Z,64.80
2019-06-27T09:18:58.424Z,64.90
2019-06-27T09:21:32.289Z,62.20
2019-06-27T09:24:07.218Z,61.70
2019-06-27T09:26:41.500Z,63.90
2019-06-27T09:29:15.553Z,64.50
2019-06-27T09:31:49.915Z,63.60
2019-06-27T09:34:24.550Z,64.60
2019-06-27T09:37:03.944Z,63.70
2019-06-27T09:39:37.730Z,62.80
2019-06-27T09:42:14.252Z,64.20
2019-06-27T09:44:52.194Z,62.60
2019-06-27T09:47:26.472Z,62.80
2019-06-27T09:50:00.572Z,64.80
2019-06-27T09:52:34.498Z,64.00
2019-06-27T09:55:09.718Z,64.90
2019-06-27T09:57:43.615Z,64.80
2019-06-27T10:00:19.448Z,64.70
2019-06-27T10:02:53.956Z,62.90
2019-06-27T10:05:28.303Z,64.00
2019-06-27T10:08:04.501Z,60.40
2019-06-27T10:10:39.772Z,60.00
2019-06-27T10:13:14.076Z,61.50
2019-06-27T10:15:48.062Z,61.20
2019-06-27T10:18:21.490Z,62.00
2019-06-27T10:20:55.896Z,61.20
2019-06-27T10:23:30.680Z,62.40
2019-06-27T10:26:07.118Z,61.00
2019-06-27T10:28:42.786Z,60.70
2019-06-27T10:31:18.138Z,60.80
2019-06-27T10:33:53.203Z,61.50
2019-06-27T10:36:28.537Z,62.20
2019-06-27T10:39:07.244Z,60.60
2019-06-27T10:41:45.095Z,60.80
2019-06-27T10:44:22.698Z,60.70
2019-06-27T10:46:55.082Z,61.10
2019-06-27T10:49:32.250Z,61.10
2019-06-27T10:52:06.038Z,61.40
2019-06-27T10:54:42.620Z,61.80
2019-06-27T10:57:17.424Z,63.40
2019-06-27T10:59:53.718Z,63.20
2019-06-27T11:02:29.128Z,63.50
2019-06-27T11:05:02.408Z,62.70
2019-06-27T11:07:40.728Z,62.60
2019-06-27T11:10:15.100Z,62.30
2019-06-27T11:12:50.393Z,64.10
2019-06-27T11:15:25.130Z,64.70
2019-06-27T11:17:59.149Z,62.50
2019-06-27T11:20:34.770Z,61.30
2019-06-27T11:23:08.998Z,64.10
2019-06-27T11:25:44.700Z,63.60
2019-06-27T11:28:18.866Z,62.50
2019-06-27T11:30:54.513Z,63.70
2019-06-27T11:33:32.913Z,63.20
2019-06-27T11:36:05.114Z,61.50
2019-06-27T11:38:42.218Z,63.60
2019-06-27T11:41:16.038Z,63.20
2019-06-27T11:43:49.892Z,62.10
2019-06-27T11:46:23.478Z,64.00
2019-06-27T11:48:59.050Z,62.30
2019-06-27T11:51:34.211Z,61.00
2019-06-27T11:54:12.518Z,61.50
2019-06-27T11:56:48.630Z,60.00
2019-06-27T11:59:29.886Z,60.20
2019-06-27T12:02:10.126Z,60.50
2019-06-27T12:04:45.071Z,61.50
2019-06-27T12:07:20.538Z,61.90
2019-06-27T12:09:59.923Z,61.40
2019-06-27T12:12:36.164Z,61.10
2019-06-27T12:15:10.193Z,62.40
2019-06-27T12:17:45.317Z,60.00
2019-06-27T12:20:20.530Z,61.20
2019-06-27T12:22:55.623Z,61.10
2019-06-27T12:25:30.305Z,60.80
2019-06-27T12:28:04.744Z,60.40
2019-06-27T12:30:39.147Z,60.50
2019-06-27T12:33:12.834Z,62.20
2019-06-27T12:35:47.375Z,60.30
2019-06-27T12:38:22.087Z,60.90
2019-06-27T12:41:01.502Z,60.00
2019-06-27T12:43:35.169Z,59.20
2019-06-27T12:46:09.364Z,59.70
2019-06-27T12:48:44.046Z,59.40
2019-06-27T12:51:19.748Z,60.40
2019-06-27T12:53:55.991Z,59.80
2019-06-27T12:56:28.882Z,61.00
2019-06-27T12:59:02.929Z,61.30
2019-06-27T13:01:38.338Z,61.40
2019-06-27T13:04:22.952Z,59.90
2019-06-27T13:06:50.576Z,60.00
2019-06-27T13:09:25.583Z,59.60
2019-06-27T13:11:59.437Z,58.20
2019-06-27T13:14:36.235Z,60.20
2019-06-27T13:17:14.794Z,58.20
2019-06-27T13:19:52.454Z,59.10
2019-06-27T13:22:29.510Z,59.30
2019-06-27T13:25:07.282Z,58.00
2019-06-27T13:27:43.575Z,57.40
2019-06-27T13:30:17.589Z,57.50
2019-06-27T13:32:52.365Z,57.50
2019-06-27T13:35:26.412Z,56.70
2019-06-27T13:38:02.037Z,56.50
2019-06-27T13:40:36.724Z,56.60
2019-06-27T13:43:12.422Z,56.30
2019-06-27T13:45:46.956Z,57.90
2019-06-27T13:48:20.529Z,56.40
2019-06-27T13:50:57.528Z,55.30
2019-06-27T13:53:34.102Z,56.60
2019-06-27T13:56:10.348Z,55.70
2019-06-27T13:58:44.748Z,55.50
2019-06-27T14:01:18.614Z,55.20
2019-06-27T14:03:52.450Z,56.90
2019-06-27T14:06:26.848Z,60.70
2019-06-27T14:09:00.679Z,59.80
2019-06-27T14:11:36.530Z,58.10
2019-06-27T14:14:11.539Z,59.70
2019-06-27T14:16:48.186Z,61.30
2019-06-27T14:19:22.584Z,61.00
2019-06-27T14:21:58.845Z,61.20
2019-06-27T14:24:32.786Z,61.80
2019-06-27T14:27:07.340Z,61.70
2019-06-27T14:29:40.934Z,61.60
2019-06-27T14:32:14.610Z,62.80
2019-06-27T14:34:49.880Z,61.80
2019-06-27T14:37:24.336Z,62.50
2019-06-27T14:39:58.302Z,62.30
2019-06-27T14:42:32.376Z,62.10
2019-06-27T14:45:06.773Z,61.50
2019-06-27T14:47:44.747Z,62.70
2019-06-27T14:50:20.301Z,63.20
2019-06-27T14:52:56.514Z,64.30
2019-06-27T14:55:31.054Z,62.40
2019-06-27T14:58:09.121Z,61.60
2019-06-27T15:00:44.027Z,61.00
2019-06-27T15:03:40.479Z,63.10
2019-06-27T15:06:16.319Z,62.60
2019-06-27T15:08:50.437Z,63.50
2019-06-27T15:11:25.789Z,62.50
2019-06-27T15:14:01.176Z,62.00
2019-06-27T15:16:35.552Z,61.40
2019-06-27T15:19:10.896Z,61.80
2019-06-27T15:21:45.767Z,62.00
2019-06-27T15:24:20.776Z,61.30
2019-06-27T15:26:56.924Z,59.90
2019-06-27T15:29:30.530Z,59.30
2019-06-27T15:32:05.461Z,59.00
2019-06-27T15:34:39.987Z,58.90
2019-06-27T15:37:15.647Z,59.10
2019-06-27T15:39:50.823Z,59.50
2019-06-27T15:42:33.053Z,59.40
2019-06-27T15:45:06.939Z,59.30
2019-06-27T15:47:42.973Z,59.90
2019-06-27T15:50:19.466Z,59.70
2019-06-27T15:52:54.150Z,59.00
2019-06-27T15:55:29.737Z,58.00
2019-06-27T15:58:05.348Z,56.60
2019-06-27T16:00:43.187Z,55.40
2019-06-27T16:03:20.995Z,55.60
2019-06-27T16:06:08.639Z,55.40
2019-06-27T16:08:34.143Z,54.70
2019-06-27T16:11:12.783Z,55.80
2019-06-27T16:14:09.688Z,56.70
2019-06-27T16:16:45.759Z,56.70
2019-06-27T16:19:21.307Z,56.50
2019-06-27T16:21:58.584Z,55.70
2019-06-27T16:24:34.481Z,55.90
2019-06-27T16:27:09.481Z,56.30
2019-06-27T16:29:43.666Z,56.60
2019-06-27T16:32:17.164Z,55.80
2019-06-27T16:34:51.506Z,56.80
2019-06-27T16:37:24.936Z,57.00
2019-06-27T16:40:00.913Z,56.50
2019-06-27T16:42:36.647Z,56.90
2019-06-27T16:45:14.836Z,58.00
2019-06-27T16:47:49.867Z,57.30
2019-06-27T16:50:24.180Z,57.80
2019-06-27T16:52:58.813Z,58.70
2019-06-27T16:55:37.113Z,59.60
2019-06-27T16:58:11.049Z,60.10
2019-06-27T17:00:46.053Z,60.50
2019-06-27T17:03:21.808Z,61.40
2019-06-27T17:05:57.293Z,60.90
2019-06-27T17:08:32.222Z,61.70
2019-06-27T17:11:11.301Z,60.80
2019-06-27T17:13:52.788Z,61.70
2019-06-27T17:16:29.733Z,61.90
2019-06-27T17:19:05.413Z,61.50
2019-06-27T17:21:39.624Z,61.20
2019-06-27T17:24:13.347Z,61.70
2019-06-27T17:26:50.794Z,61.90
2019-06-27T17:29:26.828Z,62.20
2019-06-27T17:32:06.388Z,62.80
2019-06-27T17:34:46.947Z,62.60
2019-06-27T17:37:25.400Z,62.90
2019-06-27T17:40:03.066Z,62.60
2019-06-27T17:42:44.885Z,63.00
2019-06-27T17:45:26.489Z,63.30
2019-06-27T17:48:05.359Z,63.10
2019-06-27T17:50:46.175Z,63.60
2019-06-27T17:53:27.185Z,64.30
2019-06-27T17:56:14.125Z,64.10
2019-06-27T17:58:53.673Z,64.80
2019-06-27T18:01:32.222Z,65.80
2019-06-27T18:04:11.669Z,66.00
2019-06-27T18:06:48.767Z,66.50
2019-06-27T18:09:26.687Z,67.00
2019-06-27T18:12:04.366Z,67.50
2019-06-27T18:14:41.728Z,67.40
2019-06-27T18:17:31.996Z,67.80
2019-06-27T18:20:00.204Z,68.30
2019-06-27T18:22:38.803Z,67.80
2019-06-27T18:25:17.768Z,68.20
2019-06-27T18:27:55.321Z,68.40
2019-06-27T18:30:29.289Z,68.20
2019-06-27T18:33:03.346Z,68.70
2019-06-27T18:35:40.418Z,68.80
2019-06-27T18:38:17.202Z,69.20
2019-06-27T18:40:51.781Z,69.60
2019-06-27T18:43:26.653Z,69.70
2019-06-27T18:46:01.076Z,70.00
2019-06-27T18:48:36.747Z,69.70
2019-06-27T18:51:11.589Z,70.10
2019-06-27T18:53:46.706Z,70.30
2019-06-27T18:56:29.846Z,70.90
2019-06-27T18:59:07.647Z,70.60
2019-06-27T19:01:45.505Z,70.50
2019-06-27T19:04:22.742Z,70.90
2019-06-27T19:07:02.445Z,71.10
2019-06-27T19:09:39.524Z,71.70
2019-06-27T19:12:19.217Z,71.90
2019-06-27T19:14:58.264Z,71.40
2019-06-27T19:17:36.342Z,72.10
2019-06-27T19:20:29.249Z,72.40
2019-06-27T19:23:25.306Z,72.70
2019-06-27T19:26:05.497Z,72.00
2019-06-27T19:28:43.744Z,72.70
2019-06-27T19:31:20.983Z,72.40
2019-06-27T19:33:59.329Z,72.70
2019-06-27T19:36:36.793Z,72.50
2019-06-27T19:39:14.190Z,73.10
2019-06-27T19:41:51.103Z,73.30
2019-06-27T19:44:28.666Z,73.60
2019-06-27T19:47:05.187Z,73.40
2019-06-27T19:49:42.666Z,73.80
2019-06-27T19:52:19.788Z,74.00
2019-06-27T19:54:58.004Z,74.50
2019-06-27T19:57:35.445Z,75.00
2019-06-27T20:00:13.326Z,75.30
2019-06-27T20:02:50.051Z,75.80
2019-06-27T20:05:27.064Z,76.10
2019-06-27T20:08:17.721Z,76.10
2019-06-27T20:10:42.005Z,76.80
2019-06-27T20:13:19.926Z,77.20
2019-06-27T20:15:57.998Z,77.40
2019-06-27T20:18:33.098Z,77.50
2019-06-27T20:21:09.710Z,77.50
2019-06-27T20:23:46.232Z,77.30
2019-06-27T20:26:21.964Z,77.60
2019-06-27T20:28:58.004Z,78.10
2019-06-27T20:31:32.583Z,78.40
2019-06-27T20:34:10.711Z,78.80
2019-06-27T20:36:46.309Z,79.10
2019-06-27T20:39:23.146Z,79.20
2019-06-27T20:41:58.404Z,79.80
2019-06-27T20:44:32.420Z,80.10
2019-06-27T20:47:07.527Z,80.40
2019-06-27T20:49:46.726Z,81.80
2019-06-27T20:52:20.960Z,81.20
2019-06-27T20:55:05.749Z,81.40
2019-06-27T20:57:40.029Z,81.30
2019-06-27T21:00:14.172Z,81.60
2019-06-27T21:02:48.181Z,81.50
2019-06-27T21:05:21.553Z,81.90
2019-06-27T21:07:56.097Z,82.20
2019-06-27T21:10:30.060Z,82.70
2019-06-27T21:13:08.037Z,82.80
2019-06-27T21:15:41.950Z,83.10
2019-06-27T21:18:16.438Z,83.30
2019-06-27T21:20:50.239Z,83.80
2019-06-27T21:23:25.308Z,84.00
2019-06-27T21:25:59.777Z,84.00
2019-06-27T21:28:33.945Z,84.60
2019-06-27T21:31:07.832Z,84.90
2019-06-27T21:33:43.243Z,85.00
2019-06-27T21:36:16.976Z,85.10
2019-06-27T21:39:06.605Z,85.10
2019-06-27T21:41:29.083Z,85.20
2019-06-27T21:44:08.715Z,85.90
2019-06-27T21:46:43.807Z,86.10
2019-06-27T21:49:21.461Z,86.20
2019-06-27T21:51:58.668Z,86.30
2019-06-27T21:54:33.650Z,86.50
2019-06-27T21:57:07.171Z,86.60
2019-06-27T21:59:42.004Z,86.50
2019-06-27T22:02:16.041Z,87.00
2019-06-27T22:04:51.324Z,87.30
2019-06-27T22:07:25.008Z,87.40
2019-06-27T22:09:59.924Z,87.70
2019-06-27T22:12:36.139Z,87.80
2019-06-27T22:15:11.077Z,88.10
2019-06-27T22:17:48.989Z,88.50
2019-06-27T22:20:24.747Z,88.80
2019-06-27T22:23:00.938Z,89.00
2019-06-27T22:25:40.540Z,89.10
2019-06-27T22:28:11.581Z,89.40
2019-06-27T22:30:45.269Z,89.70
2019-06-27T22:33:18.821Z,89.80
2019-06-27T22:35:53.494Z,90.10
2019-06-27T22:38:48.628Z,90.10
2019-06-27T22:41:41.181Z,90.10
2019-06-27T22:44:33.257Z,90.10
2019-06-27T22:47:25.738Z,90.30
2019-06-27T22:49:58.173Z,90.40
2019-06-27T22:53:06.773Z,90.50
2019-06-27T22:55:40.202Z,90.60
2019-06-27T22:58:14.016Z,90.90
2019-06-27T23:00:47.983Z,90.90
2019-06-27T23:03:22.509Z,90.90
2019-06-27T23:05:55.878Z,91.00
2019-06-27T23:08:29.833Z,91.20
2019-06-27T23:11:05.458Z,91.30
2019-06-27T23:13:39.247Z,91.40
2019-06-27T23:16:13.215Z,91.40
2019-06-27T23:18:47.012Z,91.40
2019-06-27T23:21:20.524Z,91.50
2019-06-27T23:23:54.059Z,91.40
2019-06-27T23:26:27.351Z,91.40
2019-06-27T23:29:01.874Z,91.40
2019-06-27T23:31:35.249Z,91.60
2019-06-27T23:34:09.927Z,91.60
2019-06-27T23:36:45.531Z,91.70
2019-06-27T23:39:19.624Z,91.60
2019-06-27T23:41:54.069Z,91.40
2019-06-27T23:44:28.318Z,91.40
2019-06-27T23:47:01.596Z,91.40
2019-06-27T23:49:35.535Z,91.40
2019-06-27T23:52:10.903Z,91.40
2019-06-27T23:54:46.201Z,91.50
2019-06-27T23:57:19.829Z,91.40
2019-06-27T23:59:53.776Z,91.50
